Time;durP1;ratioP1;P1;durP2;ratioP2;P2;SDS_P1;SDS_P2;PMS_P1;PMS_P2;Temp;Humidity;BMP_temperature;BMP_pressure;BME280_temperature;BME280_humidity;BME280_pressure;Samples;Min_cycle;Max_cycle;Signal;HPM_P1;HPM_P2
2022/06/22 00:00:01;;;;;;;9.60;4.90;;;11.70;99.90;;;11.15;100.00;97724.59;5005192;28;118866;-79
2022/06/22 00:02:43;;;;;;;6.47;4.25;;;11.80;99.90;;;11.13;100.00;97724.19;5019226;28;131294;-76
2022/06/22 00:05:20;;;;;;;6.88;4.60;;;11.80;99.90;;;11.16;100.00;97725.41;5003973;28;129346;-74
2022/06/22 00:07:52;;;;;;;;;;;11.80;99.90;;;11.23;100.00;97730.94;5002274;28;121895;-77
2022/06/22 00:10:30;;;;;;;6.97;4.97;;;11.80;99.90;;;-147.47;100.00;69272.31;5029949;28;1673866;-77
2022/06/22 00:13:03;;;;;;;6.50;3.78;;;11.80;99.90;;;-147.47;100.00;69272.31;5114184;28;33128;-79
2022/06/22 00:15:36;;;;;;;6.03;4.10;;;11.80;99.90;;;-147.47;100.00;69272.31;5095496;28;32781;-76
2022/06/22 00:18:39;;;;;;;5.90;4.07;;;11.80;99.90;;;-147.47;100.00;69272.31;5114475;28;31851;-76
2022/06/22 00:21:23;;;;;;;8.63;3.85;;;11.80;99.90;;;-147.47;100.00;69272.31;5114050;28;32542;-73
2022/06/22 00:23:55;;;;;;;5.95;3.80;;;11.80;99.90;;;-147.47;100.00;69272.31;5113740;28;32651;-79
2022/06/22 00:26:36;;;;;;;5.40;3.90;;;11.90;99.90;;;-147.47;100.00;69272.31;5095679;28;31850;-78
2022/06/22 00:29:22;;;;;;;7.43;4.15;;;11.90;99.90;;;-147.47;100.00;69272.31;5113858;28;31678;-76
2022/06/22 00:32:14;;;;;;;6.32;3.50;;;11.90;99.90;;;-147.47;100.00;69272.31;5113781;28;31269;-79
2022/06/22 00:34:42;;;;;;;5.55;3.78;;;11.90;99.90;;;-147.47;100.00;69272.31;5113317;28;33381;-74
2022/06/22 00:37:18;;;;;;;6.32;4.18;;;11.90;99.90;;;-147.47;100.00;69272.31;5116166;28;31830;-75
2022/06/22 00:39:50;;;;;;;5.77;3.63;;;12.00;99.90;;;-147.47;100.00;69272.31;5113041;28;31626;-80
2022/06/22 00:42:31;;;;;;;6.15;3.60;;;12.00;99.90;;;-147.47;100.00;69272.31;5132942;27;30525;-77
2022/06/22 00:45:05;;;;;;;6.20;3.65;;;12.00;99.90;;;-147.47;100.00;69272.31;5095057;28;32985;-79
2022/06/22 00:47:37;;;;;;;6.88;3.83;;;12.00;99.90;;;-147.47;100.00;69272.31;5113157;28;32406;-79
2022/06/22 00:50:15;;;;;;;6.20;3.90;;;12.00;99.90;;;-147.47;100.00;69272.31;5099775;28;30384;-79
2022/06/22 00:52:50;;;;;;;5.57;3.95;;;12.10;99.90;;;-147.47;100.00;69272.31;5102172;28;30397;-78
2022/06/22 00:55:28;;;;;;;7.60;4.28;;;12.00;99.90;;;-147.47;100.00;69272.31;5099170;28;32456;-78
2022/06/22 00:58:03;;;;;;;5.82;3.75;;;12.10;99.90;;;-147.47;100.00;69272.31;5117694;28;32101;-76
2022/06/22 01:00:37;;;;;;;8.52;3.95;;;12.10;99.90;;;-147.47;100.00;69272.31;5117824;28;31837;-75
2022/06/22 01:03:18;;;;;;;5.18;3.70;;;12.10;99.90;;;-147.47;100.00;69272.31;5116767;28;32395;-76
2022/06/22 01:05:56;;;;;;;6.07;3.80;;;12.10;99.90;;;-147.47;100.00;69272.31;5101380;28;31792;-77
2022/06/22 01:08:33;;;;;;;6.70;3.47;;;12.00;99.90;;;-147.47;100.00;69272.31;5101675;28;31667;-78
2022/06/22 01:12:16;;;;;;;5.70;3.50;;;12.00;99.90;;;-147.47;100.00;69272.31;5116643;28;32132;-76
2022/06/22 01:13:59;;;;;;;5.95;3.20;;;12.10;99.90;;;-147.47;100.00;69272.31;5118736;28;31887;-76
2022/06/22 01:16:32;;;;;;;5.65;3.03;;;12.10;99.90;;;-147.47;100.00;69272.31;5101508;28;32199;-77
2022/06/22 01:19:13;;;;;;;7.03;3.00;;;12.00;99.90;;;-147.47;100.00;69272.31;5116799;28;32647;-76
2022/06/22 01:21:45;;;;;;;4.63;3.10;;;12.00;99.90;;;-147.47;100.00;69272.31;5098249;28;32100;-75
2022/06/22 01:24:25;;;;;;;4.93;2.88;;;12.10;99.90;;;-147.47;100.00;69272.31;5116735;28;31872;-77
2022/06/22 01:27:32;;;;;;;6.18;3.03;;;12.10;99.90;;;-147.47;100.00;69272.31;5116748;28;32537;-74
2022/06/22 01:30:17;;;;;;;4.90;2.87;;;12.00;99.90;;;-147.47;100.00;69272.31;5116423;28;31990;-77
2022/06/22 01:32:47;;;;;;;5.13;2.72;;;12.10;99.90;;;-147.47;100.00;69272.31;5084316;28;30656;-76
2022/06/22 01:35:20;;;;;;;6.63;3.17;;;12.10;99.90;;;-147.47;100.00;69272.31;5116348;28;31862;-77
2022/06/22 01:37:50;;;;;;;4.43;3.10;;;12.10;99.90;;;-147.47;100.00;69272.31;5116046;28;32291;-77
2022/06/22 01:40:23;;;;;;;5.18;3.05;;;12.10;99.90;;;-147.47;100.00;69272.31;5116702;28;32698;-77
2022/06/22 01:42:59;;;;;;;4.57;3.10;;;12.10;99.90;;;-147.47;100.00;69272.31;5116043;28;31744;-78
2022/06/22 01:45:39;;;;;;;6.55;3.78;;;12.20;99.90;;;-147.47;100.00;69272.31;5116526;28;31541;-77
2022/06/22 01:48:16;;;;;;;5.25;3.53;;;12.20;99.90;;;-147.47;100.00;69272.31;5115828;28;32737;-77
2022/06/22 01:50:53;;;;;;;6.70;3.85;;;12.20;99.90;;;-147.47;100.00;69272.31;5083660;28;30757;-77
2022/06/22 01:53:28;;;;;;;6.28;4.50;;;12.30;99.90;;;-147.47;100.00;69272.31;5116176;28;33018;-77
2022/06/22 01:56:03;;;;;;;8.82;4.63;;;12.30;99.90;;;-147.47;100.00;69272.31;5117479;28;33155;-76
2022/06/22 01:58:54;;;;;;;8.40;5.32;;;12.30;99.90;;;-147.47;100.00;69272.31;5115819;28;33004;-75
2022/06/22 02:01:32;;;;;;;7.65;5.30;;;12.30;99.90;;;-147.47;100.00;69272.31;5115251;27;32228;-73
2022/06/22 02:04:17;;;;;;;9.82;5.78;;;12.40;99.90;;;-147.47;100.00;69272.31;5115928;28;32323;-70
2022/06/22 02:09:58;;;;;;;8.77;6.30;;;12.40;99.90;;;-147.47;100.00;69272.31;5100141;28;32084;-73
2022/06/22 02:12:36;;;;;;;8.88;6.30;;;12.40;99.90;;;-147.47;100.00;69272.31;5097060;28;33107;-78
2022/06/22 02:15:17;;;;;;;8.77;6.75;;;12.40;99.90;;;-147.47;100.00;69272.31;5115231;28;31802;-72
2022/06/22 02:17:46;;;;;;;11.00;6.50;;;12.50;99.90;;;-147.47;100.00;69272.31;5115244;28;31825;-73
2022/06/22 02:20:37;;;;;;;7.85;6.38;;;12.50;99.90;;;-147.47;100.00;69272.31;5115332;28;32287;-76
2022/06/22 02:23:18;;;;;;;9.10;6.80;;;12.50;99.90;;;-147.47;100.00;69272.31;5115410;28;31682;-77
2022/06/22 02:26:01;;;;;;;8.52;6.13;;;12.50;99.90;;;-147.47;100.00;69272.31;5115270;28;32570;-76
2022/06/22 02:28:29;;;;;;;8.43;6.85;;;12.50;99.90;;;-147.47;100.00;69272.31;5115357;28;31859;-74
2022/06/22 02:31:01;;;;;;;7.43;6.28;;;12.50;99.90;;;-147.47;100.00;69272.31;5099937;28;32583;-73
2022/06/22 02:33:32;;;;;;;9.25;7.13;;;12.60;99.90;;;-147.47;100.00;69272.31;5099819;28;31322;-74
2022/06/22 02:36:01;;;;;;;10.40;7.38;;;12.50;99.90;;;-147.47;100.00;69272.31;5114928;28;31848;-75
2022/06/22 02:38:30;;;;;;;8.93;7.28;;;12.60;99.90;;;-147.47;100.00;69272.31;5115042;28;31862;-75
2022/06/22 02:46:40;;;;;;;10.15;6.97;;;12.60;99.90;;;-147.47;100.00;69272.31;5099554;28;31577;-73
2022/06/22 02:49:18;;;;;;;9.27;6.97;;;12.60;99.90;;;-147.47;100.00;69272.31;5082626;28;30135;-76
2022/06/22 02:51:49;;;;;;;9.70;7.07;;;12.60;99.90;;;-147.47;100.00;69272.31;5099586;28;32092;-75
2022/06/22 02:54:29;;;;;;;8.25;6.57;;;12.60;99.90;;;-147.47;100.00;69272.31;5114568;28;32563;-74
2022/06/22 02:57:19;;;;;;;8.45;6.50;;;12.60;99.90;;;-147.47;100.00;69272.31;5117293;28;32619;-72
2022/06/22 02:59:50;;;;;;;8.60;6.50;;;12.60;99.90;;;-147.47;100.00;69272.31;5114538;28;32967;-74
2022/06/22 03:02:24;;;;;;;8.32;6.43;;;12.60;99.90;;;-147.47;100.00;69272.31;5099050;28;31375;-72
2022/06/22 03:04:55;;;;;;;7.53;6.43;;;12.60;99.90;;;-147.47;100.00;69272.31;5098978;28;32414;-75
2022/06/22 03:07:25;;;;;;;9.55;6.55;;;12.60;99.90;;;-147.47;100.00;69272.31;5099361;28;30778;-72
2022/06/22 03:09:54;;;;;;;8.60;6.30;;;12.50;99.90;;;-147.47;100.00;69272.31;5114259;28;31544;-74
2022/06/22 03:12:23;;;;;;;8.73;6.25;;;12.50;99.90;;;-147.47;100.00;69272.31;5113353;28;32489;-74
2022/06/22 03:14:58;;;;;;;7.57;5.75;;;12.60;99.90;;;-147.47;100.00;69272.31;5114150;28;32755;-74
2022/06/22 03:17:34;;;;;;;10.02;6.68;;;12.60;99.90;;;-147.47;100.00;69272.31;5114414;28;32565;-75
2022/06/22 03:20:09;;;;;;;8.20;6.35;;;12.60;99.90;;;-147.47;100.00;69272.31;5114195;28;31496;-76
2022/06/22 03:22:43;;;;;;;9.85;6.88;;;12.60;99.90;;;-147.47;100.00;69272.31;5114256;28;32572;-70
2022/06/22 03:25:19;;;;;;;7.72;5.80;;;12.70;99.90;;;-147.47;100.00;69272.31;5124952;27;32229;-75
2022/06/22 03:27:54;;;;;;;6.65;5.63;;;12.60;99.90;;;-147.47;100.00;69272.31;5134864;27;32390;-76
2022/06/22 03:30:28;;;;;;;8.85;6.07;;;12.70;99.90;;;-147.47;100.00;69272.31;5119477;27;30610;-74
2022/06/22 03:33:04;;;;;;;11.10;5.72;;;12.70;99.90;;;-147.47;100.00;69272.31;5134930;27;32421;-76
2022/06/22 03:35:39;;;;;;;8.02;6.20;;;12.70;99.90;;;-147.47;100.00;69272.31;5119417;27;32027;-75
2022/06/22 03:38:13;;;;;;;8.68;5.72;;;12.70;99.90;;;-147.47;100.00;69272.31;5102478;27;31627;-74
2022/06/22 03:40:48;;;;;;;8.35;6.32;;;12.60;99.90;;;-147.47;100.00;69272.31;5119376;27;31240;-74
2022/06/22 03:43:24;;;;;;;10.32;6.50;;;12.60;99.90;;;-147.47;100.00;69272.31;5134866;27;33359;-78
2022/06/22 03:45:59;;;;;;;10.77;6.50;;;12.70;99.90;;;-147.47;100.00;69272.31;5119862;27;31848;-77
2022/06/22 03:48:32;;;;;;;8.40;5.65;;;12.60;99.90;;;-147.47;100.00;69272.31;5115750;28;31616;-75
2022/06/22 03:51:06;;;;;;;9.63;5.53;;;12.70;99.90;;;-147.47;100.00;69272.31;5116151;28;31222;-74
2022/06/22 03:53:41;;;;;;;6.88;5.43;;;12.70;99.90;;;-147.47;100.00;69272.31;5115572;28;33486;-71
2022/06/22 03:56:15;;;;;;;6.57;5.47;;;12.70;99.90;;;-147.47;100.00;69272.31;5116734;28;31886;-74
2022/06/22 03:58:49;;;;;;;6.97;5.13;;;12.80;99.90;;;-147.47;100.00;69272.31;5115509;28;32016;-75
2022/06/22 04:01:19;;;;;;;10.25;5.82;;;12.70;99.90;;;-147.47;100.00;69272.31;5114478;28;31930;-76
2022/06/22 04:03:52;;;;;;;8.65;5.35;;;12.90;99.90;;;-147.47;100.00;69272.31;5118148;28;20066;-75
2022/06/22 04:06:29;;;;;;;6.97;5.00;;;12.90;99.90;;;-147.47;100.00;69272.31;5098580;28;32426;-73
2022/06/22 04:08:58;;;;;;;8.35;4.80;;;12.90;99.90;;;-147.47;100.00;69272.31;5098367;28;31811;-75
2022/06/22 04:11:35;;;;;;;6.28;4.97;;;13.00;99.90;;;-147.47;100.00;69272.31;5113387;28;31609;-74
2022/06/22 04:14:08;;;;;;;;;;;13.00;99.90;;;-147.47;100.00;69272.31;5113778;28;32164;-74
2022/06/22 04:16:39;;;;;;;8.13;4.50;;;13.00;99.90;;;-147.47;100.00;69272.31;5113520;28;33341;-72
2022/06/22 04:19:16;;;;;;;6.28;4.32;;;13.00;99.90;;;-147.47;100.00;69272.31;5113068;27;32267;-76
2022/06/22 04:21:50;;;;;;;5.53;4.22;;;13.10;99.90;;;-147.47;100.00;69272.31;5100118;28;30175;-75
2022/06/22 04:24:24;;;;;;;8.30;5.03;;;13.10;99.90;;;-147.47;100.00;69272.31;5113076;28;32717;-77
2022/06/22 04:26:58;;;;;;;5.40;4.40;;;13.10;99.90;;;-147.47;100.00;69272.31;5113274;28;32152;-73
2022/06/22 04:29:36;;;;;;;8.93;4.68;;;13.00;99.90;;;-147.47;100.00;69272.31;5113158;28;31532;-75
2022/06/22 04:32:14;;;;;;;8.13;4.80;;;13.20;99.90;;;-147.47;100.00;69272.31;5112123;28;32974;-76
2022/06/22 04:34:51;;;;;;;6.20;4.53;;;13.10;99.90;;;-147.47;100.00;69272.31;5113217;28;32621;-73
2022/06/22 04:37:31;;;;;;;7.72;4.50;;;13.00;99.90;;;-147.47;100.00;69272.31;5097722;28;32284;-76
2022/06/22 04:40:15;;;;;;;6.70;4.60;;;13.10;99.90;;;-147.47;100.00;69272.31;5097462;28;32396;-74
2022/06/22 04:42:44;;;;;;;6.38;4.75;;;13.10;99.90;;;-147.47;100.00;69272.31;5112880;28;31274;-71
2022/06/22 04:45:28;;;;;;;6.55;4.82;;;13.00;99.90;;;-147.47;100.00;69272.31;5112705;27;32611;-79
2022/06/22 04:48:03;;;;;;;6.25;4.72;;;13.10;99.90;;;-147.47;100.00;69272.31;5127356;27;32184;-75
2022/06/22 04:50:35;;;;;;;5.88;4.20;;;13.00;99.90;;;-147.47;100.00;69272.31;5111958;28;32046;-74
2022/06/22 04:53:04;;;;;;;8.50;5.13;;;13.00;99.90;;;-147.47;100.00;69272.31;5129501;27;31865;-74
2022/06/22 04:55:38;;;;;;;7.13;4.85;;;13.00;99.90;;;-147.47;100.00;69272.31;5114858;27;32731;-74
2022/06/22 04:58:24;;;;;;;6.80;4.30;;;13.10;99.90;;;-147.47;100.00;69272.31;5126672;27;31574;-74
2022/06/22 05:00:53;;;;;;;7.93;4.97;;;13.10;99.90;;;-147.47;100.00;69272.31;5092058;28;30541;-78
2022/06/22 05:03:22;;;;;;;5.93;4.35;;;13.30;99.90;;;-147.47;100.00;69272.31;5114801;27;32565;-74
2022/06/22 05:05:53;;;;;;;6.18;4.50;;;13.20;99.90;;;-147.47;100.00;69272.31;5134630;27;32906;-73
2022/06/22 05:08:29;;;;;;;6.82;4.55;;;13.20;99.90;;;-147.47;100.00;69272.31;5134303;27;31992;-73
2022/06/22 05:11:06;;;;;;;6.38;4.00;;;13.30;99.90;;;-147.47;100.00;69272.31;5133743;27;32598;-72
2022/06/22 05:13:42;;;;;;;6.32;4.38;;;13.20;99.90;;;-147.47;100.00;69272.31;5131092;27;31523;-70
2022/06/22 05:16:16;;;;;;;7.15;4.60;;;13.20;99.90;;;-147.47;100.00;69272.31;5133399;27;32680;-74
2022/06/22 05:18:47;;;;;;;5.03;3.85;;;13.40;99.90;;;-147.47;100.00;69272.31;5133168;27;33394;-69
2022/06/22 05:21:32;;;;;;;5.93;4.00;;;13.20;99.90;;;-147.47;100.00;69272.31;5132625;27;31897;-70
2022/06/22 05:24:06;;;;;;;7.38;4.28;;;13.20;99.90;;;-147.47;100.00;69272.31;5130150;27;32552;-72
2022/06/22 05:26:36;;;;;;;9.00;4.60;;;13.30;99.90;;;-147.47;100.00;69272.31;5132910;27;32568;-70
2022/06/22 05:29:11;;;;;;;6.60;4.43;;;13.40;99.90;;;-147.47;100.00;69272.31;5132587;27;32413;-75
2022/06/22 05:31:44;;;;;;;5.95;3.92;;;13.60;99.90;;;-147.47;100.00;69272.31;5132473;27;31963;-70
2022/06/22 05:34:20;;;;;;;6.47;3.58;;;13.40;99.90;;;-147.47;100.00;69272.31;5118557;27;30258;-72
2022/06/22 05:36:58;;;;;;;6.10;3.80;;;13.60;99.90;;;-147.47;100.00;69272.31;5136399;27;33379;-72
2022/06/22 05:39:26;;;;;;;7.30;4.00;;;13.60;99.90;;;-147.47;100.00;69272.31;5136920;27;31330;-72
2022/06/22 05:41:55;;;;;;;7.90;4.63;;;13.60;79.90;;;-147.47;100.00;69272.31;5136174;27;32140;-74
2022/06/22 05:44:24;;;;;;;6.15;3.95;;;13.80;67.00;;;-147.47;100.00;69272.31;5136438;27;31477;-72
2022/06/22 05:46:56;;;;;;;8.13;4.20;;;13.90;53.30;;;-147.47;100.00;69272.31;5136305;27;33421;-73
2022/06/22 05:49:31;;;;;;;8.10;4.35;;;13.90;1.00;;;-147.47;100.00;69272.31;5136281;27;32195;-74
2022/06/22 05:52:10;;;;;;;7.38;4.25;;;13.80;1.00;;;-147.47;100.00;69272.31;5136401;27;31830;-72
2022/06/22 05:54:43;;;;;;;6.60;4.60;;;13.80;1.00;;;-147.47;100.00;69272.31;5121026;27;31680;-73
2022/06/22 05:57:20;;;;;;;5.43;3.90;;;13.70;1.00;;;-147.47;100.00;69272.31;5115577;28;32507;-75
2022/06/22 05:59:58;;;;;;;8.95;4.68;;;13.60;1.00;;;-147.47;100.00;69272.31;5117288;28;32053;-75
2022/06/22 06:02:36;;;;;;;5.57;4.03;;;13.80;1.00;;;-147.47;100.00;69272.31;5100304;28;30257;-73
2022/06/22 06:05:15;;;;;;;7.07;4.53;;;13.90;1.00;;;-147.47;100.00;69272.31;5115200;28;31280;-72
2022/06/22 06:07:48;;;;;;;8.70;3.70;;;14.00;1.00;;;-147.47;100.00;69272.31;5100503;28;31417;-73
2022/06/22 06:10:24;;;;;;;7.95;3.67;;;13.90;1.00;;;-147.47;100.00;69272.31;5115314;28;32139;-76
2022/06/22 06:12:58;;;;;;;;;;;13.90;1.00;;;-147.47;100.00;69272.31;5099887;28;30608;-72
2022/06/22 06:15:28;;;;;;;5.40;3.65;;;14.00;1.00;;;-147.47;100.00;69272.31;5114507;28;31382;-73
2022/06/22 06:17:59;;;;;;;5.93;3.88;;;13.90;1.00;;;-147.47;100.00;69272.31;5114514;28;32534;-74
2022/06/22 06:20:31;;;;;;;6.38;3.63;;;13.80;1.00;;;-147.47;100.00;69272.31;5115420;28;34171;-71
2022/06/22 06:23:06;;;;;;;6.85;3.85;;;13.90;1.00;;;-147.47;100.00;69272.31;5099946;28;32027;-73
2022/06/22 06:28:39;;;;;;;6.17;3.63;;;14.10;1.00;;;-147.47;100.00;69272.31;5115213;28;33286;-73
2022/06/22 06:31:18;;;;;;;5.85;3.67;;;14.10;1.00;;;-147.47;100.00;69272.31;5115294;28;33454;-73
2022/06/22 06:33:47;;;;;;;5.28;3.53;;;14.20;1.00;;;-147.47;100.00;69272.31;5096855;28;32341;-72
2022/06/22 06:36:22;;;;;;;4.70;3.25;;;14.20;1.00;;;-147.47;100.00;69272.31;5114903;28;31551;-74
2022/06/22 06:39:01;;;;;;;4.93;3.42;;;14.20;1.00;;;-147.47;100.00;69272.31;5114906;28;32795;-71
2022/06/22 06:41:39;;;;;;;5.60;3.60;;;14.40;1.00;;;-147.47;100.00;69272.31;5116743;28;31724;-75
2022/06/22 06:44:14;;;;;;;4.32;3.00;;;14.70;1.00;;;-147.47;100.00;69272.31;5114261;28;32284;-75
2022/06/22 06:46:47;;;;;;;7.13;3.70;;;14.80;1.00;;;-147.47;100.00;69272.31;5113935;27;31745;-73
2022/06/22 06:49:23;;;;;;;5.07;3.30;;;15.00;1.00;;;-147.47;100.00;69272.31;5099007;28;32008;-74
2022/06/22 06:51:59;;;;;;;6.03;3.65;;;14.70;1.00;;;-147.47;100.00;69272.31;5099687;28;30794;-77
2022/06/22 06:54:35;;;;;;;5.27;3.60;;;14.70;1.00;;;-147.47;100.00;69272.31;5114903;28;32813;-73
2022/06/22 06:57:09;;;;;;;6.28;3.90;;;14.60;1.00;;;-147.47;100.00;69272.31;5119609;27;30500;-72
2022/06/22 06:59:40;;;;;;;6.30;3.28;;;14.90;1.00;;;-147.47;100.00;69272.31;5135211;27;33432;-73
2022/06/22 07:02:15;;;;;;;4.88;3.42;;;15.00;1.00;;;-147.47;100.00;69272.31;5102441;27;31715;-71
2022/06/22 07:04:46;;;;;;;6.30;3.63;;;14.90;1.00;;;-147.47;100.00;69272.31;5134801;27;32078;-76
2022/06/22 07:07:27;;;;;;;5.82;3.67;;;15.00;1.00;;;-147.47;100.00;69272.31;5136738;27;31525;-77
2022/06/22 07:10:01;;;;;;;7.35;3.08;;;15.00;1.00;;;-147.47;100.00;69272.31;5116845;27;33661;-76
2022/06/22 07:12:36;;;;;;;9.23;3.20;;;15.10;1.00;;;-147.47;100.00;69272.31;5119926;27;30943;-70
2022/06/22 07:15:10;;;;;;;7.30;3.38;;;14.90;1.00;;;-147.47;100.00;69272.31;5135059;27;32793;-72
2022/06/22 07:17:39;;;;;;;6.70;2.92;;;15.00;1.00;;;-147.47;100.00;69272.31;5134936;27;31300;-73
2022/06/22 07:20:18;;;;;;;5.07;3.20;;;15.10;1.00;;;-147.47;100.00;69272.31;5135036;27;33754;-71
2022/06/22 07:22:52;;;;;;;7.25;3.63;;;15.30;1.00;;;-147.47;100.00;69272.31;5134787;27;32174;-75
2022/06/22 07:25:28;;;;;;;5.43;2.97;;;15.50;1.00;;;-147.47;100.00;69272.31;5119566;27;29858;-72
2022/06/22 07:28:03;;;;;;;6.15;3.30;;;15.20;1.00;;;-147.47;100.00;69272.31;5134981;27;31378;-74
2022/06/22 07:30:36;;;;;;;5.97;3.10;;;15.40;1.00;;;-147.47;100.00;69272.31;5119711;27;32075;-74
2022/06/22 07:33:16;;;;;;;7.43;3.22;;;15.50;1.00;;;-147.47;100.00;69272.31;5134696;27;31859;-72
2022/06/22 07:35:55;;;;;;;4.90;3.17;;;15.60;1.00;;;-147.47;100.00;69272.31;5116269;27;32158;-73
2022/06/22 07:38:44;;;;;;;10.00;2.83;;;15.80;1.00;;;-147.47;100.00;69272.31;5134927;27;32834;-74
2022/06/22 07:41:22;;;;;;;5.22;3.03;;;15.70;1.00;;;-147.47;100.00;69272.31;5133342;27;32848;-73
2022/06/22 07:43:59;;;;;;;5.25;3.13;;;15.70;1.00;;;-147.47;100.00;69272.31;5101432;27;31304;-74
2022/06/22 07:46:34;;;;;;;;;;;15.90;1.00;;;-147.47;100.00;69272.31;5102444;27;30717;-72
2022/06/22 07:49:10;;;;;;;7.75;2.80;;;16.20;1.00;;;-147.47;100.00;69272.31;5134356;27;31567;-72
2022/06/22 07:51:48;;;;;;;4.20;2.20;;;16.50;1.00;;;-147.47;100.00;69272.31;5116307;27;32422;-75
2022/06/22 07:54:22;;;;;;;3.72;2.45;;;16.60;99.90;;;-147.47;100.00;69272.31;5134658;27;32370;-76
2022/06/22 07:57:04;;;;;;;5.90;2.67;;;16.50;99.90;;;-147.47;100.00;69272.31;5137285;27;32756;-74
2022/06/22 07:59:40;;;;;;;4.30;2.50;;;16.70;99.90;;;-147.47;100.00;69272.31;5133776;27;32128;-74
2022/06/22 08:02:16;;;;;;;4.20;2.10;;;16.80;99.90;;;-147.47;100.00;69272.31;5134612;27;32893;-76
2022/06/22 08:04:53;;;;;;;3.90;2.30;;;16.70;99.90;;;-147.47;100.00;69272.31;5119205;27;30913;-72
2022/06/22 08:07:24;;;;;;;;;;;17.00;99.90;;;-147.47;100.00;69272.31;5134690;27;31567;-74
2022/06/22 08:10:03;;;;;;;3.40;1.98;;;17.60;99.90;;;-147.47;100.00;69272.31;5119247;27;29846;-74
2022/06/22 08:12:40;;;;;;;6.05;2.22;;;17.30;99.90;;;-147.47;100.00;69272.31;5119518;27;30840;-72
2022/06/22 08:15:13;;;;;;;4.25;1.92;;;17.30;99.90;;;-147.47;100.00;69272.31;5116165;27;31980;-75
2022/06/22 08:17:44;;;;;;;4.28;2.00;;;17.50;99.90;;;-147.47;100.00;69272.31;5134101;27;32523;-72
2022/06/22 08:20:19;;;;;;;4.03;2.17;;;17.60;99.90;;;-147.47;100.00;69272.31;5133673;27;31604;-74
2022/06/22 08:22:50;;;;;;;4.15;1.80;;;17.80;99.90;;;-147.47;100.00;69272.31;5133994;27;32721;-73
2022/06/22 08:25:22;;;;;;;5.38;1.98;;;18.20;99.90;;;-147.47;100.00;69272.31;5119225;27;32328;-75
2022/06/22 08:27:53;;;;;;;5.32;2.10;;;17.90;99.90;;;-147.47;100.00;69272.31;5134103;27;32453;-74
2022/06/22 08:30:22;;;;;;;4.70;2.33;;;17.90;99.90;;;-147.47;100.00;69272.31;5134075;27;31674;-74
2022/06/22 08:32:55;;;;;;;4.50;2.20;;;17.50;99.90;;;-147.47;100.00;69272.31;5119036;27;31206;-75
2022/06/22 08:35:27;;;;;;;6.97;2.72;;;17.30;99.90;;;-147.47;100.00;69272.31;5115606;27;31939;-73
2022/06/22 08:38:04;;;;;;;4.93;1.98;;;17.40;99.90;;;-147.47;100.00;69272.31;5134061;27;32855;-76
2022/06/22 08:40:41;;;;;;;4.13;2.42;;;17.40;99.90;;;-147.47;100.00;69272.31;5118764;27;31121;-74
2022/06/22 08:43:26;;;;;;;7.47;2.78;;;17.50;99.90;;;-147.47;100.00;69272.31;5118634;27;31738;-74
2022/06/22 08:46:25;;;;;;;6.80;2.40;;;17.60;99.90;;;-147.47;100.00;69272.31;5134177;27;32319;-74
2022/06/22 08:49:23;;;;;;;5.50;2.13;;;17.80;99.90;;;-147.47;100.00;69272.31;5133737;27;31902;-74
2022/06/22 08:52:19;;;;;;;4.60;2.20;;;17.60;99.90;;;-147.47;100.00;69272.31;5118645;27;30198;-77
2022/06/22 08:55:11;;;;;;;5.22;1.98;;;17.40;99.90;;;-147.47;100.00;69272.31;5134519;27;32325;-76
2022/06/22 08:57:59;;;;;;;4.88;2.20;;;17.50;99.90;;;-147.47;100.00;69272.31;5133150;27;32517;-72
2022/06/22 09:00:38;;;;;;;3.95;2.00;;;17.70;99.90;;;-147.47;100.00;69272.31;5118711;27;30330;-75
2022/06/22 09:04:01;;;;;;;4.95;2.10;;;17.50;99.90;;;-147.47;100.00;69272.31;5133662;27;31520;-73
2022/06/22 09:07:06;;;;;;;4.53;1.90;;;17.80;99.90;;;-147.47;100.00;69272.31;5117684;27;32818;-76
2022/06/22 09:10:36;;;;;;;3.50;1.80;;;18.00;99.90;;;-147.47;100.00;69272.31;5115193;27;32721;-73
2022/06/22 09:13:45;;;;;;;3.13;2.03;;;18.40;99.90;;;-147.47;100.00;69272.31;5133160;27;32001;-73
2022/06/22 09:16:34;;;;;;;3.17;1.95;;;18.10;99.90;;;-147.47;100.00;69272.31;5137255;27;32389;-74
2022/06/22 09:19:29;;;;;;;3.65;1.88;;;17.90;99.90;;;-147.47;100.00;69272.31;5139226;27;33293;-74
2022/06/22 09:22:13;;;;;;;2.95;1.92;;;18.20;99.90;;;-147.47;100.00;69272.31;5121948;27;32359;-74
2022/06/22 09:24:59;;;;;;;4.40;1.80;;;18.20;99.90;;;-147.47;100.00;69272.31;5118465;27;31889;-73
2022/06/22 09:27:42;;;;;;;4.88;2.20;;;18.30;99.90;;;-147.47;100.00;69272.31;5121834;27;31744;-74
2022/06/22 09:30:26;;;;;;;6.60;1.90;;;18.40;99.90;;;-147.47;100.00;69272.31;5121717;27;31396;-74
2022/06/22 09:33:33;;;;;;;3.60;1.95;;;17.80;99.90;;;-147.47;100.00;69272.31;5137028;27;31751;-76
2022/06/22 09:36:35;;;;;;;4.20;1.90;;;17.60;99.90;;;-147.47;100.00;69272.31;5136788;27;31319;-71
2022/06/22 09:39:52;;;;;;;5.60;2.05;;;18.00;99.90;;;-147.47;100.00;69272.31;5137254;27;31672;-76
2022/06/22 09:43:20;;;;;;;4.40;1.90;;;18.30;99.90;;;-147.47;100.00;69272.31;5118173;27;33531;-77
2022/06/22 09:46:09;;;;;;;6.07;1.95;;;18.40;99.90;;;-147.47;100.00;69272.31;5113621;27;31988;-76
2022/06/22 09:49:11;;;;;;;2.78;1.55;;;18.30;99.90;;;-147.47;100.00;69272.31;5136758;27;32910;-76
2022/06/22 09:52:08;;;;;;;3.22;1.92;;;18.60;99.90;;;-147.47;100.00;69272.31;5118321;27;31562;-79
2022/06/22 09:59:07;;;;;;;5.35;2.03;;;19.00;99.90;;;-147.47;100.00;69272.31;5014897;28;31829;-75
2022/06/22 10:01:48;;;;;;;2.67;1.83;;;18.90;99.90;;;-147.47;100.00;69272.31;5012763;28;32100;-74
2022/06/22 10:04:52;;;;;;;4.90;1.80;;;19.00;99.90;;;-147.47;100.00;69272.31;5012812;28;32181;-74
2022/06/22 10:07:49;;;;;;;3.90;1.75;;;19.40;99.90;;;-147.47;100.00;69272.31;4999710;28;32925;-75
2022/06/22 10:10:32;;;;;;;3.60;1.67;;;19.30;99.90;;;-147.47;100.00;69272.31;5012589;28;32620;-77
2022/06/22 10:13:57;;;;;;;6.25;1.95;;;19.20;99.90;;;-147.47;100.00;69272.31;4999232;28;30561;-78
2022/06/22 10:16:44;;;;;;;2.58;1.60;;;19.60;99.90;;;-147.47;100.00;69272.31;5012186;28;31230;-77
2022/06/22 10:19:50;;;;;;;2.60;1.67;;;19.70;99.90;;;-147.47;100.00;69272.31;5014097;28;32639;-75
2022/06/22 10:22:39;;;;;;;4.50;1.90;;;19.10;99.90;;;-147.47;100.00;69272.31;4998952;28;31007;-72
2022/06/22 10:25:46;;;;;;;3.92;1.85;;;19.00;99.90;;;-147.47;100.00;69272.31;4982492;28;30579;-76
2022/06/22 10:29:09;;;;;;;3.83;1.92;;;18.90;99.90;;;-147.47;100.00;69272.31;4999188;28;30878;-75
2022/06/22 10:31:56;;;;;;;6.20;2.28;;;18.60;99.90;;;-147.47;100.00;69272.31;5022763;28;31743;-72
2022/06/22 10:34:48;;;;;;;2.33;1.70;;;19.10;99.90;;;-147.47;100.00;69272.31;5113949;28;31998;-74
2022/06/22 10:37:51;;;;;;;3.22;1.85;;;19.30;99.90;;;-147.47;100.00;69272.31;5115157;28;32516;-76
2022/06/22 10:46:45;;;;;;;2.45;1.77;;;19.40;99.90;;;-147.47;100.00;69272.31;5115334;28;32205;-74
2022/06/22 10:49:49;;;;;;;4.38;1.73;;;19.20;99.90;;;-147.47;100.00;69272.31;5083009;28;30028;-77
2022/06/22 10:52:43;;;;;;;3.00;1.90;;;19.40;99.90;;;-147.47;100.00;69272.31;5115238;28;31545;-75
2022/06/22 10:55:52;;;;;;;3.47;1.85;;;19.50;99.90;;;-147.47;100.00;69272.31;5119422;27;32655;-76
2022/06/22 10:58:42;;;;;;;3.08;1.90;;;19.40;99.90;;;-147.47;100.00;69272.31;5135788;27;32992;-75
2022/06/22 11:01:42;;;;;;;2.95;1.42;;;19.10;99.90;;;-147.47;100.00;69272.31;5120239;27;30756;-72
2022/06/22 11:05:03;;;;;;;4.57;1.95;;;18.60;99.90;;;-147.47;100.00;69272.31;5120207;27;30949;-77
2022/06/22 11:08:01;;;;;;;4.20;2.00;;;16.80;99.90;;;-147.47;100.00;69272.31;5117914;27;33133;-77
2022/06/22 11:10:50;;;;;;;5.03;2.15;;;16.90;99.90;;;-147.47;100.00;69272.31;5133043;27;32116;-76
2022/06/22 11:13:52;;;;;;;3.30;2.00;;;17.20;99.90;;;-147.47;100.00;69272.31;5134669;27;31789;-74
2022/06/22 11:16:50;;;;;;;5.55;3.97;;;17.40;99.90;;;-147.47;100.00;69272.31;5134913;27;32301;-75